Página principal
METAR-TAF:

METAR-TAF

Aeroportos :

Quebec, Quebec, Canadá

latitude: 46-48N, longitude: 071-23W, altura: 70 m

Observação actual do tempo

O boletim foi feito há 33 minutos, às 10:00 UTC
Vento 7 kt de sudoeste
Temperatura -16°C
Humidade 84%
Pressão 1031 hPa
Visibilidade: 24.1 km
Poucas nuvensa uma altura de 1000 ft

METAR: CYQB 231000Z 23007KT 15SM FEW010 M16/M18 A3045 RMK SF1 SF TR SLP317

Hora: 05:33 (10:33 UTC)

Previsão

O boletim foi feito há 4 horas e 54 minutos, às 05:39 UTC
Previsão válida de 23 às 06 UTC a 24 às 06 UTC
Vento 3 kt com direcção variável
Visibilidade: 10 km
Céu limpo
Tornando-se
de 23 às 13 UTC a 23 às 15 UTC
Vento 8 kt de oes-sudoeste
A partir de 23 às 1600 UTC
Vento 10 kt de oes-sudoeste
Visibilidade: 10 km
Nuvens fragmentadasa uma altura de 4000 ft

TAF: CYQB 230539Z 2306/2406 VRB03KT P6SM SKC BECMG 2313/2315 24008KT FM231600 24010KT P6SM BKN040 RMK NXT FCST BY 231200Z

Observações e previsões do tempo de mais de 4000 aeroportos (mensagens METAR e TAF).

As estações disponíveis são os pontos amarelos e vermelhos sobre o mapa.

Mova o rato sobre o mapa para ver o nome da estação.

Depois clique no ponto para visualizar as observações e previsões meteorológicas.

Para alterar o mapa : clique nos botões verdes com uma cruz preta para aumentar o zoom; no botão verde com uma pitada de zoom; ou nas setas verdes para mapas adjacentes.


METAR-TAF: